Time;durP1;ratioP1;P1;durP2;ratioP2;P2;SDS_P1;SDS_P2;PMS_P1;PMS_P2;Temp;Humidity;BMP_temperature;BMP_pressure;BME280_temperature;BME280_humidity;BME280_pressure;Samples;Min_cycle;Max_cycle;Signal;HPM_P1;HPM_P2
2021/01/26 00:00:47;;;;;;;16.93;8.43;;;0.50;99.90;;;;;;5309932;27;20436;-70
2021/01/26 00:03:13;;;;;;;17.10;8.57;;;0.50;99.90;;;;;;5310934;27;20115;-70
2021/01/26 00:05:41;;;;;;;17.10;8.23;;;0.50;99.90;;;;;;5308690;27;20144;-70
2021/01/26 00:08:08;;;;;;;16.77;8.57;;;0.50;99.90;;;;;;5309522;27;20168;-71
2021/01/26 00:10:36;;;;;;;18.40;9.50;;;0.50;99.90;;;;;;5311897;27;20187;-70
2021/01/26 00:13:07;;;;;;;16.93;8.17;;;0.50;99.90;;;;;;5311858;27;20121;-70
2021/01/26 00:15:35;;;;;;;15.80;8.67;;;0.50;99.90;;;;;;5309836;27;20136;-71
2021/01/26 00:18:02;;;;;;;18.47;8.93;;;0.50;99.90;;;;;;5309913;27;20138;-70
2021/01/26 00:20:30;;;;;;;17.83;8.57;;;0.50;99.90;;;;;;5310206;27;20388;-70
2021/01/26 00:22:56;;;;;;;18.00;9.30;;;0.50;99.90;;;;;;5311976;27;20111;-70
2021/01/26 00:25:37;;;;;;;18.90;8.93;;;0.50;99.90;;;;;;5309953;27;20144;-71
2021/01/26 00:28:05;;;;;;;19.03;9.43;;;0.60;99.90;;;;;;5309710;27;20542;-70
2021/01/26 00:30:35;;;;;;;24.43;10.03;;;0.60;99.90;;;;;;5309932;27;20128;-71
2021/01/26 00:33:14;;;;;;;20.40;9.40;;;0.60;99.90;;;;;;5309474;27;20136;-70
2021/01/26 00:35:41;;;;;;;22.53;9.73;;;0.60;99.90;;;;;;5310134;27;20148;-70
2021/01/26 00:38:08;;;;;;;23.23;11.20;;;0.60;99.90;;;;;;5290227;27;20128;-71
2021/01/26 00:40:35;;;;;;;24.80;11.40;;;0.60;99.90;;;;;;5310562;27;20169;-70
2021/01/26 00:43:02;;;;;;;21.73;10.90;;;0.60;99.90;;;;;;5311688;27;20114;-70
2021/01/26 00:45:29;;;;;;;24.10;11.07;;;0.50;99.90;;;;;;5309755;27;20113;-70
2021/01/26 00:47:57;;;;;;;25.67;11.77;;;0.50;99.90;;;;;;5309403;27;20387;-70
2021/01/26 00:50:27;;;;;;;24.73;11.90;;;0.50;99.90;;;;;;5309595;27;20116;-69
2021/01/26 00:52:54;;;;;;;25.57;11.80;;;0.50;99.90;;;;;;5311451;27;20180;-70
2021/01/26 00:55:22;;;;;;;27.40;12.27;;;0.50;99.90;;;;;;5311223;27;20124;-70
2021/01/26 00:57:49;;;;;;;28.13;12.47;;;0.50;99.90;;;;;;5309583;27;20114;-70
2021/01/26 01:00:34;;;;;;;27.13;12.53;;;0.50;99.90;;;;;;5311724;27;20349;-71
2021/01/26 01:03:01;;;;;;;29.03;12.47;;;0.50;99.90;;;;;;5311744;27;20111;-70
2021/01/26 01:05:27;;;;;;;32.83;13.33;;;0.50;99.90;;;;;;5309638;27;20116;-70
2021/01/26 01:07:54;;;;;;;28.07;12.70;;;0.50;99.90;;;;;;5309422;27;20503;-70
2021/01/26 01:10:33;;;;;;;29.43;13.63;;;0.50;99.90;;;;;;5311646;27;20366;-70
2021/01/26 01:12:59;;;;;;;28.20;13.33;;;0.60;99.90;;;;;;5309542;27;20335;-72
2021/01/26 01:15:26;;;;;;;28.57;13.20;;;0.50;99.90;;;;;;5309605;27;20132;-72
2021/01/26 01:17:52;;;;;;;31.63;13.77;;;0.60;99.90;;;;;;5309962;27;20425;-71
2021/01/26 01:20:22;;;;;;;31.20;14.30;;;0.50;99.90;;;;;;5309807;27;20114;-72
2021/01/26 01:22:49;;;;;;;30.07;14.30;;;0.60;99.90;;;;;;5309606;27;20146;-72
2021/01/26 01:25:15;;;;;;;32.00;14.57;;;0.50;99.90;;;;;;5309422;27;20485;-72
2021/01/26 01:27:43;;;;;;;31.83;15.67;;;0.50;99.90;;;;;;5309153;27;20421;-72
2021/01/26 01:30:11;;;;;;;29.43;15.00;;;0.50;99.90;;;;;;5311321;27;20114;-72
2021/01/26 01:32:38;;;;;;;37.00;16.93;;;0.50;99.90;;;;;;5309307;27;20479;-72
2021/01/26 01:35:06;;;;;;;33.90;15.80;;;0.60;99.90;;;;;;5309442;27;20114;-72
2021/01/26 01:37:33;;;;;;;33.47;15.67;;;0.60;99.90;;;;;;5311460;27;20417;-71
2021/01/26 01:40:00;;;;;;;35.33;15.87;;;0.50;99.90;;;;;;5309321;27;20145;-72
2021/01/26 01:42:26;;;;;;;34.43;16.73;;;0.50;99.90;;;;;;5311432;27;20114;-72
2021/01/26 01:44:53;;;;;;;34.33;16.50;;;0.50;99.90;;;;;;5309460;27;20174;-72
2021/01/26 01:47:42;;;;;;;35.63;17.00;;;0.50;99.90;;;;;;5311453;27;20383;-72
2021/01/26 01:50:30;;;;;;;36.80;16.37;;;0.50;99.90;;;;;;5308905;27;20439;-72
2021/01/26 01:53:19;;;;;;;34.70;15.80;;;0.50;99.90;;;;;;5309220;27;20175;-72
2021/01/26 01:55:56;;;;;;;36.27;16.50;;;0.60;99.90;;;;;;5311367;27;20147;-72
2021/01/26 01:58:29;;;;;;;36.80;17.17;;;0.50;99.90;;;;;;5311695;27;20117;-72
2021/01/26 02:01:09;;;;;;;35.00;15.73;;;0.50;99.90;;;;;;5311295;27;20180;-72
2021/01/26 02:03:45;;;;;;;34.53;15.93;;;0.50;99.90;;;;;;5310932;27;20110;-72
2021/01/26 02:06:13;;;;;;;31.13;15.47;;;0.50;99.90;;;;;;5311329;27;20136;-72
2021/01/26 02:08:51;;;;;;;34.37;16.03;;;0.50;99.90;;;;;;5308701;27;20181;-72
2021/01/26 02:11:18;;;;;;;35.53;15.60;;;0.50;99.90;;;;;;5311504;27;20117;-72
2021/01/26 02:13:46;;;;;;;33.03;15.47;;;0.50;99.90;;;;;;5309384;27;20136;-72
2021/01/26 02:16:26;;;;;;;31.93;15.80;;;0.50;99.90;;;;;;5309204;27;20126;-72
2021/01/26 02:19:26;;;;;;;40.23;16.60;;;0.50;99.90;;;;;;5310711;27;20324;-72
2021/01/26 02:22:21;;;;;;;37.10;15.20;;;0.50;99.90;;;;;;5309057;27;20117;-72
2021/01/26 02:25:22;;;;;;;35.13;15.20;;;0.60;99.90;;;;;;5309472;27;20365;-72
2021/01/26 02:28:37;;;;;;;36.83;16.10;;;0.60;99.90;;;;;;5310140;27;20370;-72
2021/01/26 02:31:36;;;;;;;34.87;15.47;;;0.60;99.90;;;;;;5311156;27;20121;-72
2021/01/26 02:35:00;;;;;;;32.87;15.00;;;0.50;99.90;;;;;;5256734;27;20161;-72
2021/01/26 02:37:53;;;;;;;34.30;15.47;;;0.50;99.90;;;;;;5221844;27;20111;-72
2021/01/26 02:40:50;;;;;;;35.93;16.13;;;0.50;99.90;;;;;;5221951;27;20123;-72
2021/01/26 02:43:42;;;;;;;36.30;15.97;;;0.50;99.90;;;;;;5218777;27;20143;-72
2021/01/26 02:46:19;;;;;;;35.43;15.93;;;0.60;99.90;;;;;;5221912;27;20119;-72
2021/01/26 02:49:00;;;;;;;34.13;15.47;;;0.60;99.90;;;;;;5219929;27;20123;-71
2021/01/26 02:51:43;;;;;;;39.83;16.63;;;0.60;99.90;;;;;;5221825;27;20141;-73
2021/01/26 02:54:19;;;;;;;36.13;16.80;;;0.50;99.90;;;;;;5221550;27;20130;-71
2021/01/26 02:57:06;;;;;;;37.53;16.20;;;0.50;99.90;;;;;;5219601;27;20112;-72
2021/01/26 02:59:42;;;;;;;39.03;16.90;;;0.60;99.90;;;;;;5222147;27;20114;-72
2021/01/26 03:02:17;;;;;;;37.40;16.43;;;0.60;99.90;;;;;;5219777;27;20138;-71
2021/01/26 03:04:51;;;;;;;37.13;15.87;;;0.60;99.90;;;;;;5222009;27;20150;-71
2021/01/26 03:07:20;;;;;;;35.57;16.37;;;0.50;99.90;;;;;;5243180;27;20282;-71
2021/01/26 03:09:52;;;;;;;38.33;16.90;;;0.60;99.90;;;;;;5308774;27;20125;-71
2021/01/26 03:12:33;;;;;;;38.27;16.70;;;0.60;99.90;;;;;;5309366;27;20328;-71
2021/01/26 03:15:05;;;;;;;41.30;17.10;;;0.60;99.90;;;;;;5309749;27;20126;-71
2021/01/26 03:17:45;;;;;;;37.30;16.30;;;0.60;99.90;;;;;;5308767;27;20447;-72
2021/01/26 03:20:26;;;;;;;36.10;16.60;;;0.70;99.90;;;;;;5311361;27;20117;-71
2021/01/26 03:22:55;;;;;;;37.57;16.50;;;0.60;99.90;;;;;;5310895;27;20121;-72
2021/01/26 03:25:25;;;;;;;32.40;16.63;;;0.70;99.90;;;;;;5308543;27;20177;-71
2021/01/26 03:27:57;;;;;;;38.60;17.43;;;0.70;99.90;;;;;;5307872;27;20476;-71
2021/01/26 03:30:30;;;;;;;35.83;16.13;;;0.70;99.90;;;;;;5308806;27;20117;-71
2021/01/26 03:33:03;;;;;;;35.80;16.43;;;0.70;99.90;;;;;;5310113;27;20156;-72
2021/01/26 03:35:30;;;;;;;37.50;16.67;;;0.70;99.90;;;;;;5310944;27;20114;-73
2021/01/26 03:38:30;;;;;;;36.47;17.07;;;0.60;99.90;;;;;;5308557;27;20171;-72
2021/01/26 03:40:59;;;;;;;36.00;16.43;;;0.70;99.90;;;;;;5220832;27;20176;-73
2021/01/26 03:43:27;;;;;;;35.63;16.57;;;0.70;99.90;;;;;;5219820;27;20189;-72
2021/01/26 03:45:58;;;;;;;37.73;17.07;;;0.70;99.90;;;;;;5219228;27;20123;-72
2021/01/26 03:48:48;;;;;;;34.33;15.67;;;0.60;99.90;;;;;;5219358;27;20191;-73
2021/01/26 03:51:28;;;;;;;34.70;16.27;;;0.60;99.90;;;;;;5220286;27;20119;-71
2021/01/26 03:53:58;;;;;;;37.63;17.07;;;0.70;99.90;;;;;;5219388;27;20158;-72
2021/01/26 03:57:02;;;;;;;33.53;16.80;;;0.60;99.90;;;;;;5221658;27;20127;-71
2021/01/26 03:59:50;;;;;;;35.83;16.57;;;0.60;99.90;;;;;;5219256;27;20348;-72
2021/01/26 04:02:23;;;;;;;40.53;17.30;;;0.60;99.90;;;;;;5221626;27;20174;-72
2021/01/26 04:05:05;;;;;;;36.73;16.83;;;0.60;99.90;;;;;;5221932;27;20155;-72
2021/01/26 04:07:37;;;;;;;36.43;16.23;;;0.60;99.90;;;;;;5220405;27;20136;-72
2021/01/26 04:10:17;;;;;;;33.90;16.47;;;0.70;99.90;;;;;;5219717;27;20139;-72
2021/01/26 04:12:47;;;;;;;33.93;16.03;;;0.70;99.90;;;;;;5219393;27;20126;-72
2021/01/26 04:15:25;;;;;;;34.40;16.60;;;0.60;99.90;;;;;;5222539;27;20455;-72
2021/01/26 04:17:53;;;;;;;34.33;16.50;;;0.60;99.90;;;;;;5310287;27;20133;-72
2021/01/26 04:20:24;;;;;;;37.23;16.97;;;0.60;99.90;;;;;;5311483;27;20113;-72
2021/01/26 04:22:54;;;;;;;37.03;16.80;;;0.60;99.90;;;;;;5310436;27;20149;-72
2021/01/26 04:25:37;;;;;;;34.77;17.13;;;0.60;99.90;;;;;;5309865;27;20110;-72
2021/01/26 04:28:15;;;;;;;36.20;16.33;;;0.60;99.90;;;;;;5310246;27;20137;-72
2021/01/26 04:30:42;;;;;;;34.70;16.30;;;0.60;99.90;;;;;;5312017;27;20171;-72
2021/01/26 04:33:14;;;;;;;35.47;16.40;;;0.60;99.90;;;;;;5310358;27;20168;-72
2021/01/26 04:35:42;;;;;;;32.17;15.07;;;0.60;99.90;;;;;;5309830;27;20117;-72
2021/01/26 04:38:09;;;;;;;30.50;15.43;;;0.60;99.90;;;;;;5310142;27;20179;-72
2021/01/26 04:40:36;;;;;;;33.53;15.37;;;0.50;99.90;;;;;;5311685;27;20334;-72
2021/01/26 04:43:08;;;;;;;35.03;15.43;;;0.50;99.90;;;;;;5310756;27;20386;-72
2021/01/26 04:45:53;;;;;;;34.87;16.13;;;0.50;99.90;;;;;;5311654;27;20194;-72
2021/01/26 04:48:29;;;;;;;33.80;15.97;;;0.60;99.90;;;;;;5309804;27;20128;-72
2021/01/26 04:50:57;;;;;;;33.60;15.13;;;0.60;99.90;;;;;;5311985;27;20113;-71
2021/01/26 04:53:42;;;;;;;32.37;14.87;;;0.50;99.90;;;;;;5311282;27;20125;-72
2021/01/26 04:56:21;;;;;;;32.97;15.80;;;0.50;99.90;;;;;;5309520;27;20466;-72
2021/01/26 04:59:15;;;;;;;32.87;15.27;;;0.50;99.90;;;;;;5311474;27;20114;-72
2021/01/26 05:02:11;;;;;;;32.57;15.40;;;0.60;99.90;;;;;;5311386;27;20125;-72
2021/01/26 05:04:58;;;;;;;32.90;14.77;;;0.60;99.90;;;;;;5275748;27;20160;-72
2021/01/26 05:07:32;;;;;;;28.87;14.27;;;0.50;99.90;;;;;;5309172;27;20141;-72
2021/01/26 05:10:02;;;;;;;29.53;14.27;;;0.60;99.90;;;;;;5310638;27;20115;-71
2021/01/26 05:12:36;;;;;;;31.60;14.57;;;0.60;99.90;;;;;;5311008;27;20114;-71
2021/01/26 05:15:04;;;;;;;30.87;13.23;;;0.60;99.90;;;;;;5308834;27;20144;-71
2021/01/26 05:17:38;;;;;;;31.03;14.67;;;0.60;99.90;;;;;;5311625;27;20114;-74
2021/01/26 05:20:08;;;;;;;30.30;13.97;;;0.60;99.90;;;;;;5310085;27;20116;-72
2021/01/26 05:23:18;;;;;;;30.07;13.73;;;0.50;99.90;;;;;;5311683;27;20160;-71
2021/01/26 05:26:02;;;;;;;30.23;14.03;;;0.50;99.90;;;;;;5219895;27;20126;-72
2021/01/26 05:28:29;;;;;;;30.40;15.00;;;0.60;99.90;;;;;;5219479;27;20134;-72
2021/01/26 05:31:05;;;;;;;30.83;15.40;;;0.50;99.90;;;;;;5219579;27;20143;-73
2021/01/26 05:33:32;;;;;;;30.40;15.10;;;0.50;99.90;;;;;;5221453;27;20435;-71
2021/01/26 05:36:02;;;;;;;32.77;14.83;;;0.50;99.90;;;;;;5220947;27;20115;-73
2021/01/26 05:38:29;;;;;;;28.57;14.73;;;0.50;99.90;;;;;;5222208;27;20115;-71
2021/01/26 05:41:05;;;;;;;32.20;14.53;;;0.50;99.90;;;;;;5220030;27;20147;-72
2021/01/26 05:43:33;;;;;;;30.63;15.03;;;0.50;99.90;;;;;;5223182;27;20331;-72
2021/01/26 05:46:05;;;;;;;31.10;15.00;;;0.50;99.90;;;;;;5219393;27;20120;-72
2021/01/26 05:48:48;;;;;;;31.97;15.13;;;0.50;99.90;;;;;;5222673;27;20115;-72
2021/01/26 05:51:20;;;;;;;29.40;15.07;;;0.60;99.90;;;;;;5220009;27;20150;-72
2021/01/26 05:54:00;;;;;;;34.70;15.03;;;0.50;99.90;;;;;;5220914;27;20136;-72
2021/01/26 05:56:28;;;;;;;31.80;15.23;;;0.60;99.90;;;;;;5221298;27;20386;-71
2021/01/26 05:58:55;;;;;;;31.03;15.20;;;0.60;99.90;;;;;;5240167;27;20460;-72
2021/01/26 06:01:22;;;;;;;31.20;15.30;;;0.50;99.90;;;;;;5309050;27;20150;-72
2021/01/26 06:04:14;;;;;;;32.03;15.90;;;0.60;99.90;;;;;;5311301;27;20486;-72
2021/01/26 06:06:49;;;;;;;29.50;14.47;;;0.50;99.90;;;;;;5309096;27;20152;-72
2021/01/26 06:09:34;;;;;;;32.07;15.67;;;0.50;99.90;;;;;;5309610;27;20120;-72
2021/01/26 06:12:08;;;;;;;31.97;15.20;;;0.50;99.90;;;;;;5311265;27;20117;-72
2021/01/26 06:14:35;;;;;;;30.30;15.37;;;0.50;99.90;;;;;;5310303;27;20168;-72
2021/01/26 06:17:17;;;;;;;33.27;15.10;;;0.50;99.90;;;;;;5308890;27;20109;-72
2021/01/26 06:19:44;;;;;;;29.77;14.07;;;0.40;99.90;;;;;;5309594;27;20111;-73
2021/01/26 06:22:22;;;;;;;28.73;14.03;;;0.50;99.90;;;;;;5310420;27;20436;-72
2021/01/26 06:24:51;;;;;;;25.50;13.10;;;0.50;99.90;;;;;;5309749;27;20157;-72
2021/01/26 06:27:33;;;;;;;27.13;13.33;;;0.50;99.90;;;;;;5308942;27;20113;-72
2021/01/26 06:30:18;;;;;;;25.67;12.63;;;0.40;99.90;;;;;;5309732;27;20420;-73
2021/01/26 06:33:10;;;;;;;28.63;13.13;;;0.50;99.90;;;;;;5309232;27;20458;-72
2021/01/26 06:36:03;;;;;;;31.33;13.80;;;0.50;99.90;;;;;;5309230;27;20128;-72
2021/01/26 06:39:18;;;;;;;27.03;13.43;;;0.50;99.90;;;;;;5311545;27;20117;-71
2021/01/26 06:42:06;;;;;;;27.03;14.10;;;0.50;99.90;;;;;;5220191;27;20509;-72
2021/01/26 06:44:57;;;;;;;25.53;12.93;;;0.50;99.90;;;;;;5221977;27;20341;-71
2021/01/26 06:47:40;;;;;;;26.37;12.77;;;0.50;99.90;;;;;;5219691;27;20313;-71
2021/01/26 06:50:29;;;;;;;24.07;12.87;;;0.50;99.90;;;;;;5221850;27;20173;-71
2021/01/26 06:53:17;;;;;;;24.27;12.47;;;0.60;99.90;;;;;;5136158;27;20136;-72
2021/01/26 06:56:10;;;;;;;25.80;12.60;;;0.60;99.90;;;;;;5134184;28;20240;-72
2021/01/26 06:59:15;;;;;;;26.03;13.77;;;0.60;99.90;;;;;;5137172;28;20443;-68
2021/01/26 07:02:30;;;;;;;25.87;12.43;;;0.50;99.90;;;;;;5137726;28;20502;-72
2021/01/26 07:05:32;;;;;;;25.10;12.37;;;0.60;99.90;;;;;;5136606;28;20131;-71
2021/01/26 07:08:19;;;;;;;24.27;11.60;;;0.60;99.90;;;;;;5135563;28;20152;-72
2021/01/26 07:11:14;;;;;;;27.33;12.63;;;0.60;99.90;;;;;;5136059;28;20156;-71
2021/01/26 07:14:07;;;;;;;22.43;11.93;;;0.50;99.90;;;;;;5136477;28;20180;-72
2021/01/26 07:16:36;;;;;;;26.00;11.60;;;0.60;99.90;;;;;;5135370;28;20128;-70
2021/01/26 07:19:27;;;;;;;24.67;11.30;;;0.50;99.90;;;;;;5173784;27;20162;-72
2021/01/26 07:22:17;;;;;;;21.17;11.10;;;0.60;99.90;;;;;;5200530;27;20119;-71
2021/01/26 07:24:53;;;;;;;21.90;11.30;;;0.60;99.90;;;;;;5197983;27;20143;-72
2021/01/26 07:27:44;;;;;;;21.63;10.40;;;0.50;99.90;;;;;;5200202;27;20159;-72
2021/01/26 07:30:20;;;;;;;20.00;9.53;;;0.50;99.90;;;;;;5236241;27;20399;-71
2021/01/26 07:33:28;;;;;;;24.10;10.67;;;0.50;99.90;;;;;;5265631;27;20436;-72
2021/01/26 07:36:07;;;;;;;23.07;11.30;;;0.50;99.90;;;;;;5267203;27;20160;-72
2021/01/26 07:38:39;;;;;;;24.10;11.27;;;0.50;99.90;;;;;;5265698;27;20110;-72
2021/01/26 07:41:28;;;;;;;24.67;11.77;;;0.40;99.90;;;;;;5266598;27;20137;-71
2021/01/26 07:44:27;;;;;;;25.83;11.60;;;0.40;99.90;;;;;;5265054;27;20111;-71
2021/01/26 07:47:03;;;;;;;27.43;11.80;;;0.50;99.90;;;;;;5267132;27;20115;-73
2021/01/26 07:50:06;;;;;;;25.20;12.33;;;0.50;99.90;;;;;;5265535;27;20111;-73
2021/01/26 07:52:35;;;;;;;31.03;13.27;;;0.60;99.90;;;;;;5249194;27;20130;-72
2021/01/26 07:55:12;;;;;;;27.77;13.23;;;0.60;99.90;;;;;;5268567;27;20134;-73
2021/01/26 07:57:51;;;;;;;27.33;13.33;;;0.60;99.90;;;;;;5268302;27;20110;-72
2021/01/26 08:00:21;;;;;;;30.27;14.17;;;0.60;99.90;;;;;;5266979;27;20125;-73
2021/01/26 08:02:54;;;;;;;29.67;14.33;;;0.70;99.90;;;;;;5268375;27;20124;-74
2021/01/26 08:05:41;;;;;;;32.23;13.43;;;0.60;99.90;;;;;;5266399;27;20145;-74
2021/01/26 08:08:17;;;;;;;29.70;13.03;;;0.60;99.90;;;;;;5299249;27;20198;-73
2021/01/26 08:10:44;;;;;;;27.70;12.77;;;0.60;99.90;;;;;;5312395;27;20133;-73
2021/01/26 08:13:23;;;;;;;30.07;13.27;;;0.60;99.90;;;;;;5311569;27;20144;-73
2021/01/26 08:15:50;;;;;;;27.80;13.20;;;0.60;99.90;;;;;;5309946;27;20124;-74
2021/01/26 08:18:21;;;;;;;30.17;13.00;;;0.60;99.90;;;;;;5309849;27;20391;-73
2021/01/26 08:20:47;;;;;;;26.90;12.13;;;0.60;99.90;;;;;;5309741;27;20157;-74
2021/01/26 08:23:28;;;;;;;30.30;12.87;;;0.50;99.90;;;;;;5310428;27;20139;-75
2021/01/26 08:25:56;;;;;;;26.77;12.83;;;0.70;99.90;;;;;;5309811;27;20137;-73
2021/01/26 08:28:38;;;;;;;27.00;12.20;;;0.70;99.90;;;;;;5309623;27;20121;-73
2021/01/26 08:31:24;;;;;;;26.50;11.93;;;0.60;99.90;;;;;;5309255;27;20157;-74
2021/01/26 08:33:53;;;;;;;29.70;12.13;;;0.50;99.90;;;;;;5311698;27;20450;-75
2021/01/26 08:36:37;;;;;;;26.90;11.63;;;0.60;99.90;;;;;;5309732;27;20128;-75
2021/01/26 08:39:05;;;;;;;26.57;12.67;;;0.60;99.90;;;;;;5311652;27;20109;-74
2021/01/26 08:41:42;;;;;;;29.67;12.97;;;0.60;99.90;;;;;;5309773;27;20129;-74
2021/01/26 08:44:29;;;;;;;30.90;12.77;;;0.60;99.90;;;;;;5311909;27;20128;-74
2021/01/26 08:46:57;;;;;;;32.70;13.00;;;0.70;99.90;;;;;;5295424;27;20165;-72
2021/01/26 08:49:31;;;;;;;32.20;13.27;;;0.70;99.90;;;;;;5310166;27;20110;-72
2021/01/26 08:52:22;;;;;;;30.77;13.07;;;0.70;99.90;;;;;;5311157;27;20110;-71
2021/01/26 08:54:51;;;;;;;31.17;13.07;;;0.70;99.90;;;;;;5310624;27;20118;-75
2021/01/26 08:57:26;;;;;;;36.23;13.80;;;0.90;99.90;;;;;;5309780;27;20151;-74
2021/01/26 08:59:58;;;;;;;36.00;14.60;;;0.80;99.90;;;;;;5309272;27;20155;-73
2021/01/26 09:02:37;;;;;;;35.00;13.30;;;0.90;99.90;;;;;;5309136;27;20122;-72
2021/01/26 09:05:05;;;;;;;35.03;14.43;;;1.00;99.90;;;;;;5309580;27;20152;-72
2021/01/26 09:07:55;;;;;;;30.47;12.87;;;1.10;99.90;;;;;;5309230;27;20166;-73
2021/01/26 09:10:46;;;;;;;31.87;13.80;;;1.10;99.90;;;;;;5309216;27;20158;-73
2021/01/26 09:13:27;;;;;;;31.33;12.97;;;1.30;99.90;;;;;;5308866;27;20149;-72
2021/01/26 09:16:12;;;;;;;30.07;12.93;;;1.30;99.90;;;;;;5308708;27;20184;-71
2021/01/26 09:18:39;;;;;;;35.13;12.60;;;1.30;99.90;;;;;;5308752;27;20152;-73
2021/01/26 09:21:13;;;;;;;31.43;12.30;;;1.30;99.90;;;;;;5309556;27;20113;-71
2021/01/26 09:23:41;;;;;;;29.87;13.43;;;1.30;99.90;;;;;;5309692;27;20113;-73
2021/01/26 09:26:17;;;;;;;34.60;13.37;;;1.30;99.90;;;;;;5309420;27;20161;-77
2021/01/26 09:28:46;;;;;;;33.97;14.13;;;1.40;99.90;;;;;;5310030;27;20120;-74
2021/01/26 09:31:15;;;;;;;32.60;12.87;;;1.40;99.90;;;;;;5309566;27;20132;-74
2021/01/26 09:33:42;;;;;;;27.60;12.43;;;1.50;99.90;;;;;;5309468;27;20126;-74
2021/01/26 09:36:13;;;;;;;28.20;12.00;;;1.50;99.90;;;;;;5309263;27;20128;-79
2021/01/26 09:38:45;;;;;;;27.20;12.07;;;1.40;99.90;;;;;;5308712;27;20118;-75
2021/01/26 09:41:21;;;;;;;26.63;11.43;;;1.50;99.90;;;;;;5309397;27;20144;-75
2021/01/26 09:43:57;;;;;;;27.80;11.87;;;1.60;99.90;;;;;;5289908;27;20117;-74
2021/01/26 09:46:39;;;;;;;28.37;11.83;;;1.60;99.90;;;;;;5309528;27;20109;-74
2021/01/26 09:49:23;;;;;;;27.27;11.73;;;1.70;99.90;;;;;;5309821;27;20145;-74
2021/01/26 09:52:09;;;;;;;26.13;11.33;;;1.70;99.90;;;;;;5310426;27;20121;-73
2021/01/26 09:54:41;;;;;;;26.93;11.63;;;1.70;99.90;;;;;;5309329;27;20183;-73
2021/01/26 09:57:14;;;;;;;25.73;10.53;;;1.70;99.90;;;;;;5309638;27;20125;-73
2021/01/26 09:59:43;;;;;;;25.30;11.30;;;1.80;99.90;;;;;;5309237;27;20106;-74
2021/01/26 10:02:15;;;;;;;28.93;12.37;;;1.80;99.90;;;;;;5309153;27;20110;-73
2021/01/26 10:04:45;;;;;;;33.50;12.10;;;1.80;99.90;;;;;;5308500;27;20110;-73
2021/01/26 10:07:22;;;;;;;31.47;13.00;;;1.80;99.90;;;;;;5290273;27;20137;-73
2021/01/26 10:09:50;;;;;;;29.60;12.50;;;1.80;99.90;;;;;;5308492;27;20118;-73
2021/01/26 10:12:33;;;;;;;27.33;12.10;;;1.80;99.90;;;;;;5308953;27;20116;-73
2021/01/26 10:15:33;;;;;;;30.20;12.70;;;1.80;99.90;;;;;;5309086;27;20117;-75
2021/01/26 10:18:16;;;;;;;31.50;12.13;;;2.00;99.90;;;;;;5308761;27;20162;-74
2021/01/26 10:20:47;;;;;;;28.53;12.03;;;2.00;99.90;;;;;;5307733;27;20134;-74
2021/01/26 10:23:30;;;;;;;24.33;10.80;;;2.00;99.90;;;;;;5308388;27;20401;-76
2021/01/26 10:26:23;;;;;;;22.27;10.00;;;2.10;99.90;;;;;;5308974;27;20332;-75
2021/01/26 10:29:00;;;;;;;19.07;9.63;;;2.10;99.90;;;;;;5308977;27;20110;-74
2021/01/26 10:31:29;;;;;;;23.57;10.40;;;2.10;99.90;;;;;;5308370;27;20120;-74
2021/01/26 10:33:56;;;;;;;23.23;10.10;;;2.10;99.90;;;;;;5307758;27;20531;-74
2021/01/26 10:36:29;;;;;;;20.43;9.93;;;2.20;99.90;;;;;;5308656;27;20121;-73
2021/01/26 10:39:03;;;;;;;22.67;9.83;;;2.20;99.90;;;;;;5308669;27;20164;-72
2021/01/26 10:41:38;;;;;;;21.90;10.20;;;2.30;99.90;;;;;;5308726;27;20113;-73
2021/01/26 10:44:13;;;;;;;19.20;9.93;;;2.30;99.90;;;;;;5308887;27;20113;-73
2021/01/26 10:46:42;;;;;;;21.83;10.13;;;2.40;99.90;;;;;;5308996;27;20181;-73
2021/01/26 10:49:16;;;;;;;20.80;9.87;;;2.20;99.90;;;;;;5308972;27;20373;-74
2021/01/26 10:51:45;;;;;;;21.63;10.43;;;2.30;99.90;;;;;;5309481;27;20114;-74
2021/01/26 10:54:12;;;;;;;20.73;10.53;;;2.30;99.90;;;;;;5308746;27;20121;-73
2021/01/26 10:56:41;;;;;;;22.83;10.17;;;2.30;99.90;;;;;;5308688;27;20110;-73
2021/01/26 10:59:08;;;;;;;23.30;10.73;;;2.20;99.90;;;;;;5308484;27;20114;-73
2021/01/26 11:01:36;;;;;;;23.03;11.30;;;2.10;99.90;;;;;;5308874;27;20109;-74
2021/01/26 11:04:03;;;;;;;24.30;11.50;;;2.00;99.90;;;;;;5308874;27;20181;-74
2021/01/26 11:06:30;;;;;;;22.73;11.10;;;1.90;99.90;;;;;;5308207;27;20160;-74
2021/01/26 11:08:57;;;;;;;24.27;11.67;;;2.00;99.90;;;;;;5307969;27;20137;-73
2021/01/26 11:11:26;;;;;;;23.83;11.10;;;1.90;99.90;;;;;;5308503;27;20137;-72
2021/01/26 11:13:54;;;;;;;24.53;11.77;;;1.90;99.90;;;;;;5308432;27;20121;-74
2021/01/26 11:16:21;;;;;;;25.70;11.90;;;1.80;99.90;;;;;;5308544;27;20126;-73
2021/01/26 11:18:48;;;;;;;24.70;11.90;;;1.70;99.90;;;;;;5309292;27;20141;-74
2021/01/26 11:21:15;;;;;;;26.20;11.73;;;1.70;99.90;;;;;;5308667;27;20113;-73
2021/01/26 11:23:42;;;;;;;23.93;11.43;;;1.60;99.90;;;;;;5308445;27;20110;-73
2021/01/26 11:26:13;;;;;;;27.67;11.43;;;1.60;99.90;;;;;;5309988;27;20132;-73
2021/01/26 11:28:39;;;;;;;25.13;11.57;;;1.70;99.90;;;;;;5309941;27;20114;-73
2021/01/26 11:31:06;;;;;;;26.47;12.10;;;1.70;99.90;;;;;;5308127;27;20145;-73
2021/01/26 11:33:35;;;;;;;30.87;12.67;;;1.80;99.90;;;;;;5308623;27;20316;-73
2021/01/26 11:36:04;;;;;;;25.70;11.80;;;1.90;99.90;;;;;;5308513;27;20121;-72
2021/01/26 11:38:31;;;;;;;28.83;12.10;;;1.90;99.90;;;;;;5310732;27;20150;-73
2021/01/26 11:40:59;;;;;;;27.87;12.03;;;1.90;99.90;;;;;;5308731;27;20116;-73
2021/01/26 11:43:25;;;;;;;23.80;12.07;;;2.00;99.90;;;;;;5308427;27;20117;-75
2021/01/26 11:45:52;;;;;;;25.00;12.50;;;2.00;99.90;;;;;;5308545;27;20129;-74
2021/01/26 11:48:19;;;;;;;25.33;11.63;;;1.90;99.90;;;;;;5308908;27;20121;-74
2021/01/26 11:50:45;;;;;;;27.70;11.63;;;1.90;99.90;;;;;;5308502;27;20170;-73
2021/01/26 11:53:14;;;;;;;23.57;10.57;;;1.90;99.90;;;;;;5308271;27;20148;-73
2021/01/26 11:55:42;;;;;;;21.77;11.13;;;1.90;99.90;;;;;;5309444;27;20113;-75
2021/01/26 11:58:11;;;;;;;22.03;10.80;;;1.90;99.90;;;;;;5308888;27;20141;-75
2021/01/26 12:00:37;;;;;;;24.03;11.47;;;1.90;99.90;;;;;;5307803;27;20149;-81
2021/01/26 12:03:05;;;;;;;28.53;12.67;;;1.90;99.90;;;;;;5307834;27;20504;-78
2021/01/26 12:05:34;;;;;;;26.50;11.87;;;1.90;99.90;;;;;;5310444;27;20114;-74
2021/01/26 12:08:01;;;;;;;24.43;11.73;;;1.80;99.90;;;;;;5308080;27;20351;-75
2021/01/26 12:10:28;;;;;;;26.50;13.03;;;1.90;99.90;;;;;;5307605;27;20129;-75
2021/01/26 12:12:55;;;;;;;26.30;12.13;;;1.90;99.90;;;;;;5309320;27;20347;-74
2021/01/26 12:15:31;;;;;;;25.00;12.00;;;1.90;99.90;;;;;;5308477;27;20154;-74
2021/01/26 12:17:59;;;;;;;23.90;11.33;;;2.00;99.90;;;;;;5310189;27;20113;-74
2021/01/26 12:20:27;;;;;;;23.80;11.57;;;2.00;99.90;;;;;;5288182;27;20200;-73
2021/01/26 12:22:55;;;;;;;23.30;11.63;;;2.00;99.90;;;;;;5308351;27;20423;-71
2021/01/26 12:25:22;;;;;;;23.67;11.20;;;2.00;99.90;;;;;;5288550;27;20358;-76
2021/01/26 12:27:52;;;;;;;23.87;11.47;;;2.00;99.90;;;;;;5289099;27;20425;-73
2021/01/26 12:30:19;;;;;;;26.13;11.43;;;2.00;99.90;;;;;;5308166;27;20125;-72
2021/01/26 12:32:46;;;;;;;24.60;11.23;;;1.90;99.90;;;;;;5309256;27;20125;-72
2021/01/26 12:35:24;;;;;;;24.03;11.10;;;1.80;99.90;;;;;;5309730;27;20137;-72
2021/01/26 12:37:51;;;;;;;24.60;11.20;;;1.80;99.90;;;;;;5310338;27;20114;-75
2021/01/26 12:40:19;;;;;;;25.27;11.53;;;1.80;99.90;;;;;;5309747;27;20169;-74
2021/01/26 12:42:46;;;;;;;23.13;11.30;;;1.70;99.90;;;;;;5309594;27;20416;-73
2021/01/26 12:45:14;;;;;;;28.57;11.77;;;1.80;99.90;;;;;;5309484;27;20124;-72
2021/01/26 12:47:41;;;;;;;26.47;12.10;;;1.80;99.90;;;;;;5310263;27;20114;-72
2021/01/26 12:50:11;;;;;;;27.47;11.70;;;1.70;99.90;;;;;;5309616;27;20158;-71
2021/01/26 12:52:37;;;;;;;27.80;12.50;;;1.70;99.90;;;;;;5311835;27;20149;-72
2021/01/26 12:55:05;;;;;;;27.00;12.03;;;1.70;99.90;;;;;;5309483;27;20148;-73
2021/01/26 12:57:32;;;;;;;28.97;12.00;;;1.70;99.90;;;;;;5311119;27;20133;-73
2021/01/26 12:59:59;;;;;;;26.33;12.17;;;1.70;99.90;;;;;;5310428;27;20452;-73
2021/01/26 13:02:27;;;;;;;26.87;12.93;;;1.70;99.90;;;;;;5311437;27;20113;-73
2021/01/26 13:04:55;;;;;;;28.70;12.37;;;1.70;99.90;;;;;;5309439;27;20114;-72
2021/01/26 13:07:23;;;;;;;29.30;12.17;;;1.80;99.90;;;;;;5289984;27;20386;-73
2021/01/26 13:09:50;;;;;;;26.73;11.93;;;1.70;99.90;;;;;;5310796;27;20155;-73
2021/01/26 13:12:17;;;;;;;25.00;12.30;;;1.70;99.90;;;;;;5309564;27;20136;-73
2021/01/26 13:14:44;;;;;;;26.23;12.00;;;1.80;99.90;;;;;;5309289;27;20440;-73
2021/01/26 13:17:11;;;;;;;26.23;11.93;;;1.80;99.90;;;;;;5309081;27;20512;-74
2021/01/26 13:19:38;;;;;;;28.33;13.00;;;1.90;99.90;;;;;;5309519;27;20150;-73